createdAt,value
2022-10-09T00:01:43.453Z,101248.34
2022-10-09T00:04:14.208Z,101255.44
2022-10-09T00:06:44.297Z,101246.59
2022-10-09T00:09:14.998Z,101244.81
2022-10-09T00:11:43.008Z,101229.78
2022-10-09T00:14:12.639Z,101247.47
2022-10-09T00:16:42.725Z,101242.16
2022-10-09T00:19:10.949Z,101241.28
2022-10-09T00:21:38.874Z,101234.19
2022-10-09T00:24:07.140Z,101230.66
2022-10-09T00:26:35.033Z,101230.66
2022-10-09T00:29:03.808Z,101231.56
2022-10-09T00:31:33.480Z,101227.13
2022-10-09T00:34:03.974Z,101231.56
2022-10-09T00:39:43.001Z,101220.94
2022-10-09T00:42:14.641Z,101224.47
2022-10-09T00:44:57.460Z,101227.13
2022-10-09T00:47:30.480Z,101221.81
2022-10-09T00:50:05.827Z,101222.72
2022-10-09T00:52:37.099Z,101228.03
2022-10-09T00:55:09.332Z,101216.53
2022-10-09T00:57:39.839Z,101220.97
2022-10-09T01:00:11.763Z,101220.06
2022-10-09T01:02:39.820Z,101225.38
2022-10-09T01:05:11.968Z,101227.13
2022-10-09T01:07:55.998Z,101215.66
2022-10-09T01:10:34.034Z,101220.06
2022-10-09T01:13:10.597Z,101223.63
2022-10-09T01:15:45.484Z,101220.06
2022-10-09T01:18:23.476Z,101216.56
2022-10-09T01:20:56.670Z,101219.19
2022-10-09T01:23:59.626Z,101216.53
2022-10-09T01:26:48.377Z,101209.44
2022-10-09T01:29:19.800Z,101208.59
2022-10-09T01:31:50.649Z,101204.13
2022-10-09T01:34:21.361Z,101199.72
2022-10-09T01:36:50.714Z,101201.50
2022-10-09T01:39:22.378Z,101204.16
2022-10-09T01:41:53.526Z,101198.84
2022-10-09T01:44:23.514Z,101196.22
2022-10-09T01:46:54.562Z,101204.19
2022-10-09T01:49:39.150Z,101197.13
2022-10-09T01:52:19.481Z,101197.13
2022-10-09T01:55:09.027Z,101189.16
2022-10-09T01:57:44.977Z,101187.41
2022-10-09T02:00:15.312Z,101192.69
2022-10-09T02:02:46.557Z,101190.94
2022-10-09T02:05:20.152Z,101182.13
2022-10-09T02:08:06.627Z,101193.56
2022-10-09T02:10:39.616Z,101183.88
2022-10-09T02:13:12.642Z,101177.69
2022-10-09T02:15:45.398Z,101181.19
2022-10-09T02:18:16.886Z,101176.75
2022-10-09T02:20:49.716Z,101173.19
2022-10-09T02:23:18.630Z,101164.34
2022-10-09T02:25:47.495Z,101174.06
2022-10-09T02:28:20.091Z,101167.88
2022-10-09T02:30:55.435Z,101134.28
2022-10-09T02:33:28.328Z,101171.38
2022-10-09T02:35:56.401Z,101168.78
2022-10-09T02:38:24.532Z,101165.28
2022-10-09T02:40:58.993Z,101169.72
2022-10-09T02:43:31.568Z,101169.75
2022-10-09T02:46:00.052Z,101170.63
2022-10-09T02:48:28.167Z,101170.66
2022-10-09T02:50:57.052Z,101174.16
2022-10-09T02:53:45.103Z,101168.88
2022-10-09T02:56:15.828Z,101169.75
2022-10-09T02:58:47.441Z,101170.59
2022-10-09T03:01:16.062Z,101168.84
2022-10-09T03:03:44.275Z,101171.50
2022-10-09T03:06:28.818Z,101173.25
2022-10-09T03:08:57.831Z,101169.72
2022-10-09T03:11:32.090Z,101172.38
2022-10-09T03:14:01.709Z,101161.75
2022-10-09T03:16:31.171Z,101173.22
2022-10-09T03:19:04.683Z,101170.56
2022-10-09T03:21:32.727Z,101164.41
2022-10-09T03:24:01.012Z,101169.69
2022-10-09T03:26:29.486Z,101168.81
2022-10-09T03:28:57.598Z,101169.72
2022-10-09T03:34:21.351Z,101154.69
2022-10-09T03:36:50.426Z,101163.53
2022-10-09T03:39:18.854Z,101160.91
2022-10-09T03:41:47.234Z,101160.88
2022-10-09T03:44:15.246Z,101158.22
2022-10-09T03:46:47.383Z,101161.78
2022-10-09T03:49:15.668Z,101162.66
2022-10-09T03:51:44.033Z,101166.19
2022-10-09T03:54:20.682Z,101161.78
2022-10-09T03:56:49.441Z,101165.34
2022-10-09T03:59:17.409Z,101163.53
2022-10-09T04:01:47.104Z,101159.16
2022-10-09T04:04:15.460Z,101166.19
2022-10-09T04:06:43.758Z,101165.31
2022-10-09T04:09:11.835Z,101160.00
2022-10-09T04:11:40.236Z,101166.19
2022-10-09T04:14:08.435Z,101164.44
2022-10-09T04:16:36.761Z,101150.34
2022-10-09T04:19:06.478Z,101168.88
2022-10-09T04:21:34.693Z,101167.97
2022-10-09T04:24:13.169Z,101158.28
2022-10-09T04:26:41.254Z,101160.94
2022-10-09T04:29:09.536Z,101165.34
2022-10-09T04:31:39.792Z,101164.44
2022-10-09T04:34:11.995Z,101157.38
2022-10-09T04:36:40.124Z,101159.16
2022-10-09T04:39:08.358Z,101155.63
2022-10-09T04:41:38.537Z,101159.16
2022-10-09T04:44:06.976Z,101153.84
2022-10-09T04:46:35.116Z,101151.19
2022-10-09T04:49:03.409Z,101158.28
2022-10-09T04:51:32.704Z,101153.84
2022-10-09T04:54:01.006Z,101152.97
2022-10-09T04:56:35.108Z,101152.97
2022-10-09T04:59:03.575Z,101142.38
2022-10-09T05:01:37.254Z,101145.03
2022-10-09T05:04:06.788Z,101142.34
2022-10-09T05:06:38.222Z,101143.22
2022-10-09T05:09:09.243Z,101145.00
2022-10-09T05:11:42.314Z,101139.72
2022-10-09T05:14:11.479Z,101145.00
2022-10-09T05:17:01.044Z,101143.22
2022-10-09T05:19:27.901Z,101150.28
2022-10-09T05:21:57.520Z,101150.28
2022-10-09T05:24:25.749Z,101151.16
2022-10-09T05:26:56.100Z,101151.13
2022-10-09T05:29:24.404Z,101157.34
2022-10-09T05:31:52.398Z,101158.19
2022-10-09T05:34:20.766Z,101150.25
2022-10-09T05:36:48.643Z,101114.03
2022-10-09T05:40:52.915Z,101156.38
2022-10-09T05:43:25.078Z,101151.94
2022-10-09T05:45:55.735Z,101159.03
2022-10-09T05:48:23.756Z,101159.91
2022-10-09T05:50:54.270Z,101164.31
2022-10-09T05:53:22.458Z,101155.50
2022-10-09T05:55:51.729Z,101159.03
2022-10-09T05:58:19.869Z,101155.50
2022-10-09T06:00:50.284Z,101162.56
2022-10-09T06:03:18.574Z,101157.28
2022-10-09T06:05:48.671Z,101170.50
2022-10-09T06:08:16.776Z,101159.94
2022-10-09T06:10:44.859Z,101160.81
2022-10-09T06:13:32.456Z,101163.47
2022-10-09T06:16:00.833Z,101160.84
2022-10-09T06:18:31.896Z,101161.75
2022-10-09T06:21:02.418Z,101162.63
2022-10-09T06:23:31.621Z,101165.31
2022-10-09T06:26:04.578Z,101160.88
2022-10-09T06:28:35.709Z,101170.63
2022-10-09T06:31:05.047Z,101158.25
2022-10-09T06:33:37.175Z,101161.81
2022-10-09T06:36:19.203Z,101165.31
2022-10-09T06:38:47.714Z,101165.28
2022-10-09T06:41:17.279Z,101165.22
2022-10-09T06:43:50.319Z,101165.16
2022-10-09T06:46:19.506Z,101170.31
2022-10-09T06:48:47.611Z,101168.22
2022-10-09T06:51:17.667Z,101160.66
2022-10-09T06:53:48.121Z,101158.41
2022-10-09T06:56:17.248Z,101167.50
2022-10-09T06:58:47.341Z,101173.94
2022-10-09T07:01:17.096Z,101165.88
2022-10-09T07:03:56.534Z,101168.94
2022-10-09T07:06:26.781Z,101170.06
2022-10-09T07:08:58.340Z,101166.75
2022-10-09T07:11:28.252Z,101171.69
2022-10-09T07:14:01.227Z,101172.03
2022-10-09T07:16:31.131Z,101167.50
2022-10-09T07:19:03.835Z,101167.16
2022-10-09T07:21:34.388Z,101167.00
2022-10-09T07:24:03.971Z,101172.22
2022-10-09T07:26:36.426Z,101172.44
2022-10-09T07:29:10.438Z,101171.72
2022-10-09T07:31:38.634Z,101171.97
2022-10-09T07:34:07.018Z,101167.56
2022-10-09T07:36:35.695Z,101171.63
2022-10-09T07:39:05.369Z,101174.78
2022-10-09T07:41:34.503Z,101168.97
2022-10-09T07:44:02.818Z,101164.78
2022-10-09T07:46:34.053Z,101158.41
2022-10-09T07:49:02.895Z,101157.16
2022-10-09T07:51:32.126Z,101151.03
2022-10-09T07:54:01.973Z,101151.59
2022-10-09T07:56:32.667Z,101153.66
2022-10-09T07:59:02.335Z,101150.97
2022-10-09T08:01:33.258Z,101141.41
2022-10-09T08:04:11.632Z,101149.47
2022-10-09T08:06:40.204Z,101148.25
2022-10-09T08:09:10.393Z,101154.94
2022-10-09T08:11:41.050Z,101154.22
2022-10-09T08:14:18.019Z,101155.56
2022-10-09T08:16:49.404Z,101147.50
2022-10-09T08:19:18.141Z,101144.53
2022-10-09T08:21:48.438Z,101149.00
2022-10-09T08:24:19.088Z,101147.56
2022-10-09T08:27:10.465Z,101143.66
2022-10-09T08:29:40.334Z,101129.06
2022-10-09T08:32:09.957Z,101138.34
2022-10-09T08:34:38.135Z,101133.22
2022-10-09T08:37:06.257Z,101140.66
2022-10-09T08:39:36.579Z,101132.94
2022-10-09T08:42:06.195Z,101137.59
2022-10-09T08:44:39.064Z,101131.47
2022-10-09T08:47:17.878Z,101120.84
2022-10-09T08:49:55.545Z,101136.13
2022-10-09T08:52:36.743Z,101127.69
2022-10-09T08:55:12.966Z,101115.97
2022-10-09T08:57:41.451Z,101125.97
2022-10-09T09:00:16.504Z,101124.16
2022-10-09T09:03:29.444Z,101123.16
2022-10-09T09:06:07.488Z,101116.03
2022-10-09T09:08:45.888Z,101111.50
2022-10-09T09:11:24.962Z,101117.19
2022-10-09T09:14:04.431Z,101109.19
2022-10-09T09:16:40.625Z,101103.59
2022-10-09T09:19:32.905Z,101097.38
2022-10-09T09:22:01.480Z,101107.22
2022-10-09T09:24:35.573Z,101099.41
2022-10-09T09:27:11.865Z,101092.59
2022-10-09T09:29:43.840Z,101094.88
2022-10-09T09:32:19.227Z,101089.34
2022-10-09T09:34:50.163Z,101091.16
2022-10-09T09:37:18.873Z,101086.13
2022-10-09T09:42:35.236Z,101078.06
2022-10-09T09:45:07.325Z,101076.22
2022-10-09T09:47:41.449Z,101065.28
2022-10-09T09:50:28.440Z,101073.72
2022-10-09T09:52:58.139Z,101064.00
2022-10-09T09:55:30.213Z,101062.63
2022-10-09T09:58:04.295Z,101056.44
2022-10-09T10:00:36.428Z,101053.34
2022-10-09T10:03:14.866Z,101061.75
2022-10-09T10:05:45.838Z,101048.50
2022-10-09T10:08:22.788Z,101046.84
2022-10-09T10:10:55.015Z,101048.75
2022-10-09T10:13:31.684Z,101042.31
2022-10-09T10:16:25.618Z,101039.53
2022-10-09T10:18:56.089Z,101028.41
2022-10-09T10:21:26.146Z,101031.66
2022-10-09T10:23:59.159Z,101017.28
2022-10-09T10:26:34.875Z,101018.78
2022-10-09T10:29:12.765Z,101011.88
2022-10-09T10:31:52.180Z,101013.47
2022-10-09T10:34:24.073Z,101016.38
2022-10-09T10:37:03.380Z,101000.56
2022-10-09T10:41:53.991Z,100996.91
2022-10-09T10:44:27.512Z,100998.28
2022-10-09T10:47:00.970Z,100983.31
2022-10-09T10:49:33.520Z,100982.19
2022-10-09T10:52:16.091Z,100980.13
2022-10-09T10:54:52.576Z,100973.72
2022-10-09T10:57:33.004Z,100971.19
2022-10-09T11:00:06.249Z,100954.31
2022-10-09T11:03:00.986Z,100968.47
2022-10-09T11:05:39.543Z,100972.41
2022-10-09T11:08:23.428Z,100971.31
2022-10-09T11:11:00.527Z,100971.03
2022-10-09T11:13:35.079Z,100956.56
2022-10-09T11:16:17.384Z,100957.22
2022-10-09T11:19:07.151Z,100953.47
2022-10-09T11:21:50.361Z,100959.88
2022-10-09T11:24:45.319Z,100961.16
2022-10-09T11:27:39.446Z,100952.56
2022-10-09T11:30:11.561Z,100950.78
2022-10-09T11:32:54.314Z,100936.75
2022-10-09T11:35:26.523Z,100939.28
2022-10-09T11:38:01.374Z,100934.91
2022-10-09T11:40:34.062Z,100927.53
2022-10-09T11:43:15.228Z,100923.38
2022-10-09T11:45:55.595Z,100923.00
2022-10-09T11:48:35.323Z,100910.91
2022-10-09T11:51:12.479Z,100908.16
2022-10-09T11:53:44.398Z,100908.28
2022-10-09T11:56:22.658Z,100907.91
2022-10-09T11:59:05.102Z,100891.63
2022-10-09T12:01:37.600Z,100893.25
2022-10-09T12:04:37.719Z,100882.66
2022-10-09T12:07:13.229Z,100880.53
2022-10-09T12:09:45.562Z,100888.13
2022-10-09T12:12:23.892Z,100872.09
2022-10-09T12:14:56.559Z,100878.78
2022-10-09T12:17:35.784Z,100866.34
2022-10-09T12:20:08.349Z,100865.53
2022-10-09T12:22:52.433Z,100859.91
2022-10-09T12:25:40.655Z,100858.56
2022-10-09T12:28:21.644Z,100844.88
2022-10-09T12:31:20.984Z,100850.19
2022-10-09T12:33:54.297Z,100831.25
2022-10-09T12:36:27.773Z,100827.84
2022-10-09T12:38:55.881Z,100826.06
2022-10-09T12:41:27.925Z,100827.84
2022-10-09T12:43:58.031Z,100825.16
2022-10-09T12:46:38.166Z,100819.31
2022-10-09T12:49:19.851Z,100821.22
2022-10-09T12:51:56.656Z,100810.28
2022-10-09T12:54:26.038Z,100802.03
2022-10-09T12:56:56.503Z,100800.53
2022-10-09T12:59:30.479Z,100794.63
2022-10-09T13:02:01.139Z,100792.91
2022-10-09T13:04:32.841Z,100783.84
2022-10-09T13:07:16.066Z,100783.56
2022-10-09T13:09:44.074Z,100772.84
2022-10-09T13:12:20.805Z,100772.94
2022-10-09T13:14:55.920Z,100775.53
2022-10-09T13:17:27.018Z,100770.72
2022-10-09T13:20:04.456Z,100771.25
2022-10-09T13:22:35.166Z,100765.69
2022-10-09T13:25:07.537Z,100756.72
2022-10-09T13:27:40.875Z,100756.78
2022-10-09T13:30:13.329Z,100745.94
2022-10-09T13:32:41.476Z,100749.13
2022-10-09T13:35:11.085Z,100756.50
2022-10-09T13:37:39.185Z,100740.91
2022-10-09T13:40:14.801Z,100735.56
2022-10-09T13:42:46.221Z,100739.50
2022-10-09T13:45:14.513Z,100731.13
2022-10-09T13:47:42.604Z,100736.44
2022-10-09T13:50:16.396Z,100730.53
2022-10-09T13:52:44.613Z,100718.78
2022-10-09T13:55:14.662Z,100713.81
2022-10-09T13:57:43.239Z,100725.38
2022-10-09T14:00:12.686Z,100719.28
2022-10-09T14:02:41.502Z,100710.56
2022-10-09T14:05:10.076Z,100709.47
2022-10-09T14:07:40.151Z,100701.09
2022-10-09T14:10:08.980Z,100697.44
2022-10-09T14:12:37.771Z,100691.88
2022-10-09T14:15:07.036Z,100694.75
2022-10-09T14:17:37.678Z,100698.75
2022-10-09T14:20:06.789Z,100700.88
2022-10-09T14:22:35.443Z,100690.59
2022-10-09T14:25:05.565Z,100680.94
2022-10-09T14:30:03.475Z,100673.97
2022-10-09T14:32:32.573Z,100669.34
2022-10-09T14:35:26.053Z,100664.50
2022-10-09T14:37:54.179Z,100671.78
2022-10-09T14:40:26.617Z,100664.63
2022-10-09T14:42:54.996Z,100664.16
2022-10-09T14:45:23.087Z,100666.03
2022-10-09T14:47:51.388Z,100657.88
2022-10-09T14:50:22.314Z,100656.13
2022-10-09T14:53:02.484Z,100650.66
2022-10-09T14:55:37.996Z,100641.16
2022-10-09T14:58:41.718Z,100644.03
2022-10-09T15:01:13.456Z,100638.75
2022-10-09T15:03:41.865Z,100640.81
2022-10-09T15:06:14.205Z,100640.13
2022-10-09T15:08:43.807Z,100642.31
2022-10-09T15:11:41.659Z,100637.63
2022-10-09T15:14:13.609Z,100619.25
2022-10-09T15:16:41.788Z,100610.22
2022-10-09T15:19:10.065Z,100628.84
2022-10-09T15:21:38.120Z,100621.09
2022-10-09T15:24:08.795Z,100616.22
2022-10-09T15:26:59.694Z,100614.06
2022-10-09T15:29:28.003Z,100620.31
2022-10-09T15:32:11.462Z,100605.78
2022-10-09T15:34:41.131Z,100603.50
2022-10-09T15:37:09.470Z,100608.56
2022-10-09T15:42:50.191Z,100597.44
2022-10-09T15:45:18.577Z,100596.63
2022-10-09T15:47:53.502Z,100594.22
2022-10-09T15:50:21.577Z,100591.13
2022-10-09T15:52:54.669Z,100587.44
2022-10-09T15:55:22.959Z,100582.19
2022-10-09T15:57:53.665Z,100581.75
2022-10-09T16:00:24.623Z,100570.69
2022-10-09T16:02:52.903Z,100579.44
2022-10-09T16:05:21.481Z,100565.53
2022-10-09T16:07:50.050Z,100566.88
2022-10-09T16:10:18.656Z,100575.91
2022-10-09T16:12:47.728Z,100568.88
2022-10-09T16:15:18.441Z,100562.59
2022-10-09T16:17:48.436Z,100560.34
2022-10-09T16:20:16.846Z,100564.84
2022-10-09T16:22:47.479Z,100570.66
2022-10-09T16:25:21.843Z,100567.22
2022-10-09T16:27:51.211Z,100569.09
2022-10-09T16:30:20.627Z,100555.84
2022-10-09T16:32:49.834Z,100555.75
2022-10-09T16:35:22.579Z,100559.38
2022-10-09T16:37:52.617Z,100564.91
2022-10-09T16:40:37.456Z,100564.19
2022-10-09T16:43:12.477Z,100564.13
2022-10-09T16:45:44.258Z,100568.53
2022-10-09T16:48:12.605Z,100569.19
2022-10-09T16:50:41.891Z,100571.03
2022-10-09T16:53:12.743Z,100559.75
2022-10-09T16:55:40.715Z,100568.69
2022-10-09T16:58:08.985Z,100557.72
2022-10-09T17:00:37.013Z,100559.97
2022-10-09T17:03:06.884Z,100558.44
2022-10-09T17:05:39.846Z,100556.19
2022-10-09T17:08:08.248Z,100554.09
2022-10-09T17:10:36.662Z,100553.19
2022-10-09T17:13:04.877Z,100553.72
2022-10-09T17:15:33.219Z,100553.66
2022-10-09T17:18:01.123Z,100554.19
2022-10-09T17:20:30.687Z,100560.75
2022-10-09T17:23:03.180Z,100550.56
2022-10-09T17:25:34.309Z,100553.63
2022-10-09T17:28:08.004Z,100556.81
2022-10-09T17:30:40.207Z,100562.88
2022-10-09T17:33:08.798Z,100558.03
2022-10-09T17:35:42.283Z,100563.81
2022-10-09T17:38:10.843Z,100566.00
2022-10-09T17:40:40.102Z,100558.41
2022-10-09T17:43:08.851Z,100565.94
2022-10-09T17:46:14.327Z,100567.19
2022-10-09T17:48:44.892Z,100563.91
2022-10-09T17:51:17.812Z,100559.88
2022-10-09T17:53:48.987Z,100558.44
2022-10-09T17:56:17.338Z,100565.66
2022-10-09T17:58:47.490Z,100554.78
2022-10-09T18:01:17.264Z,100557.31
2022-10-09T18:03:48.293Z,100554.91
2022-10-09T18:06:22.400Z,100550.78
2022-10-09T18:08:57.268Z,100546.31
2022-10-09T18:11:28.588Z,100554.34
2022-10-09T18:14:18.415Z,100547.34
2022-10-09T18:16:46.607Z,100550.50
2022-10-09T18:19:18.420Z,100541.53
2022-10-09T18:21:50.404Z,100546.19
2022-10-09T18:24:19.032Z,100546.72
2022-10-09T18:26:49.181Z,100543.78
2022-10-09T18:29:17.441Z,100548.97
2022-10-09T18:31:45.331Z,100541.50
2022-10-09T18:34:13.288Z,100542.44
2022-10-09T18:36:41.350Z,100541.66
2022-10-09T18:39:14.963Z,100541.16
2022-10-09T18:41:43.153Z,100536.69
2022-10-09T18:44:17.632Z,100545.22
2022-10-09T18:46:52.391Z,100542.03
2022-10-09T18:49:26.807Z,100533.41
2022-10-09T18:51:55.231Z,100536.19
2022-10-09T18:54:26.534Z,100534.19
2022-10-09T18:56:54.912Z,100535.97
2022-10-09T18:59:25.755Z,100531.66
2022-10-09T19:01:53.776Z,100530.84
2022-10-09T19:04:24.394Z,100530.91
2022-10-09T19:06:55.222Z,100519.34
2022-10-09T19:09:43.600Z,100527.34
2022-10-09T19:12:12.331Z,100508.78
2022-10-09T19:14:40.610Z,100516.41
2022-10-09T19:17:08.880Z,100519.84
2022-10-09T19:19:37.129Z,100526.59
2022-10-09T19:22:05.631Z,100522.34
2022-10-09T19:24:34.455Z,100518.28
2022-10-09T19:27:05.673Z,100516.59
2022-10-09T19:29:58.511Z,100501.75
2022-10-09T19:32:27.021Z,100502.53
2022-10-09T19:34:55.452Z,100503.00
2022-10-09T19:37:27.437Z,100504.31
2022-10-09T19:40:04.644Z,100485.22
2022-10-09T19:42:34.165Z,100496.41
2022-10-09T19:45:02.859Z,100495.66
2022-10-09T19:47:31.250Z,100494.00
2022-10-09T19:49:59.582Z,100485.94
2022-10-09T19:52:27.522Z,100488.00
2022-10-09T19:54:55.685Z,100493.94
2022-10-09T19:57:27.969Z,100483.53
2022-10-09T19:59:57.794Z,100488.09
2022-10-09T20:02:29.309Z,100494.50
2022-10-09T20:04:57.547Z,100486.75
2022-10-09T20:07:28.316Z,100490.47
2022-10-09T20:09:56.898Z,100480.78
2022-10-09T20:12:26.572Z,100485.63
2022-10-09T20:14:55.044Z,100487.81
2022-10-09T20:17:24.736Z,100499.59
2022-10-09T20:19:53.076Z,100497.78
2022-10-09T20:22:21.276Z,100491.28
2022-10-09T20:24:49.680Z,100500.16
2022-10-09T20:27:17.725Z,100492.13
2022-10-09T20:29:45.970Z,100487.81
2022-10-09T20:32:13.935Z,100496.06
2022-10-09T20:34:45.555Z,100497.88
2022-10-09T20:37:14.181Z,100492.81
2022-10-09T20:39:44.337Z,100495.09
2022-10-09T20:43:52.930Z,100486.84
2022-10-09T20:46:24.704Z,100492.38
2022-10-09T20:48:53.847Z,100489.03
2022-10-09T20:51:23.229Z,100478.63
2022-10-09T20:53:55.883Z,100485.94
2022-10-09T20:56:26.183Z,100486.16
2022-10-09T20:58:56.340Z,100486.44
2022-10-09T21:01:25.862Z,100481.19
2022-10-09T21:03:53.969Z,100486.72
2022-10-09T21:06:22.690Z,100478.84
2022-10-09T21:08:51.593Z,100487.88
2022-10-09T21:11:20.021Z,100478.25
2022-10-09T21:13:48.590Z,100474.03
2022-10-09T21:16:21.229Z,100458.56
2022-10-09T21:18:53.685Z,100476.94
2022-10-09T21:21:24.557Z,100477.91
2022-10-09T21:23:54.206Z,100473.53
2022-10-09T21:26:23.941Z,100477.97
2022-10-09T21:28:59.263Z,100477.03
2022-10-09T21:31:31.455Z,100472.72
2022-10-09T21:34:01.065Z,100471.91
2022-10-09T21:36:41.088Z,100473.69
2022-10-09T21:39:19.290Z,100472.03
2022-10-09T21:41:47.472Z,100469.50
2022-10-09T21:44:19.244Z,100463.44
2022-10-09T21:46:52.470Z,100467.09
2022-10-09T21:49:28.972Z,100469.00
2022-10-09T21:52:02.837Z,100477.16
2022-10-09T21:54:31.753Z,100477.34
2022-10-09T21:57:13.244Z,100466.91
2022-10-09T21:59:42.511Z,100474.16
2022-10-09T22:02:16.041Z,100471.63
2022-10-09T22:04:45.204Z,100476.94
2022-10-09T22:07:16.996Z,100462.69
2022-10-09T22:09:49.643Z,100468.97
2022-10-09T22:12:20.476Z,100480.53
2022-10-09T22:14:57.513Z,100466.47
2022-10-09T22:17:39.307Z,100471.88
2022-10-09T22:20:16.892Z,100467.53
2022-10-09T22:22:46.512Z,100412.34
2022-10-09T22:25:34.452Z,100467.56
2022-10-09T22:28:03.862Z,100473.72
2022-10-09T22:30:36.180Z,100452.63
2022-10-09T22:33:13.258Z,100465.03
2022-10-09T22:35:50.600Z,100458.00
2022-10-09T22:38:38.787Z,100465.09
2022-10-09T22:41:10.974Z,100465.97
2022-10-09T22:43:50.039Z,100466.91
2022-10-09T22:46:22.165Z,100459.78
2022-10-09T22:48:56.729Z,100465.97
2022-10-09T22:51:31.255Z,100459.06
2022-10-09T22:54:05.777Z,100460.84
2022-10-09T22:56:56.531Z,100461.00
2022-10-09T22:59:32.897Z,100458.47
2022-10-09T23:02:18.884Z,100460.47
2022-10-09T23:04:58.174Z,100457.88
2022-10-09T23:07:31.306Z,100443.84
2022-10-09T23:10:06.511Z,100446.50
2022-10-09T23:12:42.914Z,100446.63
2022-10-09T23:15:23.169Z,100449.34
2022-10-09T23:17:57.099Z,100446.75
2022-10-09T23:20:39.123Z,100440.63
2022-10-09T23:23:17.594Z,100451.31
2022-10-09T23:25:52.562Z,100449.59
2022-10-09T23:28:31.765Z,100438.13
2022-10-09T23:31:06.550Z,100443.53
2022-10-09T23:33:39.270Z,100448.91
2022-10-09T23:36:25.264Z,100439.28
2022-10-09T23:39:00.349Z,100435.72
2022-10-09T23:41:41.021Z,100436.75
2022-10-09T23:44:21.963Z,100437.72
2022-10-09T23:47:01.077Z,100438.69
2022-10-09T23:49:34.530Z,100429.97
2022-10-09T23:52:06.845Z,100435.31
2022-10-09T23:54:40.814Z,100433.59
2022-10-09T23:57:09.598Z,100423.06
2022-10-09T23:59:55.520Z,100428.38
